sensor_id;sensor_type;location;lat;lon;timestamp;P1;durP1;ratioP1;P2;durP2;ratioP2
45388;SDS011;31127;52.078;4.370;2023-05-23T00:03:34;17.65;;;6.00;;
45388;SDS011;31127;52.078;4.370;2023-05-23T00:08:29;13.13;;;4.80;;
45388;SDS011;31127;52.078;4.370;2023-05-23T00:13:24;15.97;;;5.20;;
45388;SDS011;31127;52.078;4.370;2023-05-23T00:18:20;21.23;;;6.15;;
45388;SDS011;31127;52.078;4.370;2023-05-23T00:23:18;13.07;;;5.32;;
45388;SDS011;31127;52.078;4.370;2023-05-23T00:28:15;22.23;;;7.15;;
45388;SDS011;31127;52.078;4.370;2023-05-23T00:33:10;14.50;;;5.70;;
45388;SDS011;31127;52.078;4.370;2023-05-23T00:38:09;15.55;;;5.45;;
45388;SDS011;31127;52.078;4.370;2023-05-23T00:43:25;26.67;;;6.40;;
45388;SDS011;31127;52.078;4.370;2023-05-23T00:48:21;15.25;;;5.45;;
45388;SDS011;31127;52.078;4.370;2023-05-23T00:53:19;22.90;;;6.18;;
45388;SDS011;31127;52.078;4.370;2023-05-23T00:58:15;18.83;;;5.38;;
45388;SDS011;31127;52.078;4.370;2023-05-23T01:03:11;19.85;;;5.45;;
45388;SDS011;31127;52.078;4.370;2023-05-23T01:08:12;15.52;;;4.43;;
45388;SDS011;31127;52.078;4.370;2023-05-23T01:13:55;23.05;;;5.43;;
45388;SDS011;31127;52.078;4.370;2023-05-23T01:18:38;19.30;;;4.28;;
45388;SDS011;31127;52.078;4.370;2023-05-23T01:28:40;18.17;;;4.75;;
45388;SDS011;31127;52.078;4.370;2023-05-23T01:33:38;22.65;;;4.82;;
45388;SDS011;31127;52.078;4.370;2023-05-23T01:38:34;17.48;;;4.43;;
45388;SDS011;31127;52.078;4.370;2023-05-23T01:43:29;22.60;;;4.97;;
45388;SDS011;31127;52.078;4.370;2023-05-23T01:48:25;19.27;;;5.18;;
45388;SDS011;31127;52.078;4.370;2023-05-23T01:53:22;14.38;;;4.75;;
45388;SDS011;31127;52.078;4.370;2023-05-23T01:58:17;23.00;;;4.50;;
45388;SDS011;31127;52.078;4.370;2023-05-23T02:03:14;13.95;;;4.40;;
45388;SDS011;31127;52.078;4.370;2023-05-23T02:08:10;24.70;;;4.72;;
45388;SDS011;31127;52.078;4.370;2023-05-23T02:13:06;17.42;;;4.25;;
45388;SDS011;31127;52.078;4.370;2023-05-23T02:18:02;19.07;;;4.33;;
45388;SDS011;31127;52.078;4.370;2023-05-23T02:22:59;17.05;;;6.28;;
45388;SDS011;31127;52.078;4.370;2023-05-23T02:27:54;15.27;;;4.55;;
45388;SDS011;31127;52.078;4.370;2023-05-23T02:32:50;16.23;;;4.20;;
45388;SDS011;31127;52.078;4.370;2023-05-23T02:38:05;13.25;;;3.63;;
45388;SDS011;31127;52.078;4.370;2023-05-23T02:43:01;14.93;;;4.25;;
45388;SDS011;31127;52.078;4.370;2023-05-23T02:47:56;18.45;;;4.82;;
45388;SDS011;31127;52.078;4.370;2023-05-23T02:52:53;20.27;;;4.60;;
45388;SDS011;31127;52.078;4.370;2023-05-23T02:57:49;16.90;;;3.75;;
45388;SDS011;31127;52.078;4.370;2023-05-23T03:02:45;14.00;;;3.80;;
45388;SDS011;31127;52.078;4.370;2023-05-23T03:07:41;17.08;;;4.05;;
45388;SDS011;31127;52.078;4.370;2023-05-23T03:12:36;12.75;;;3.10;;
45388;SDS011;31127;52.078;4.370;2023-05-23T03:17:32;14.63;;;3.08;;
45388;SDS011;31127;52.078;4.370;2023-05-23T03:22:27;10.17;;;3.00;;
45388;SDS011;31127;52.078;4.370;2023-05-23T03:27:23;11.00;;;3.25;;
45388;SDS011;31127;52.078;4.370;2023-05-23T03:32:18;6.75;;;2.55;;
45388;SDS011;31127;52.078;4.370;2023-05-23T03:37:13;8.37;;;2.90;;
45388;SDS011;31127;52.078;4.370;2023-05-23T03:42:17;8.98;;;3.00;;
45388;SDS011;31127;52.078;4.370;2023-05-23T03:47:13;11.77;;;4.97;;
45388;SDS011;31127;52.078;4.370;2023-05-23T03:52:11;14.93;;;3.25;;
45388;SDS011;31127;52.078;4.370;2023-05-23T03:57:07;15.10;;;4.45;;
45388;SDS011;31127;52.078;4.370;2023-05-23T04:02:09;18.20;;;4.50;;
45388;SDS011;31127;52.078;4.370;2023-05-23T04:07:05;13.40;;;4.63;;
45388;SDS011;31127;52.078;4.370;2023-05-23T04:12:01;14.05;;;4.10;;
45388;SDS011;31127;52.078;4.370;2023-05-23T04:16:57;12.93;;;4.45;;
45388;SDS011;31127;52.078;4.370;2023-05-23T04:21:55;18.48;;;4.85;;
45388;SDS011;31127;52.078;4.370;2023-05-23T04:26:51;16.25;;;4.50;;
45388;SDS011;31127;52.078;4.370;2023-05-23T04:31:47;15.10;;;5.30;;
45388;SDS011;31127;52.078;4.370;2023-05-23T04:36:43;15.25;;;4.85;;
45388;SDS011;31127;52.078;4.370;2023-05-23T04:41:39;18.13;;;4.25;;
45388;SDS011;31127;52.078;4.370;2023-05-23T04:47:07;19.55;;;5.47;;
45388;SDS011;31127;52.078;4.370;2023-05-23T04:52:22;19.92;;;5.10;;
45388;SDS011;31127;52.078;4.370;2023-05-23T04:57:38;15.05;;;4.82;;
45388;SDS011;31127;52.078;4.370;2023-05-23T05:02:35;19.60;;;5.28;;
45388;SDS011;31127;52.078;4.370;2023-05-23T05:07:31;19.38;;;4.07;;
45388;SDS011;31127;52.078;4.370;2023-05-23T05:12:30;17.50;;;4.60;;
45388;SDS011;31127;52.078;4.370;2023-05-23T05:17:26;15.95;;;4.50;;
45388;SDS011;31127;52.078;4.370;2023-05-23T05:22:44;14.88;;;4.32;;
45388;SDS011;31127;52.078;4.370;2023-05-23T05:27:41;13.75;;;4.38;;
45388;SDS011;31127;52.078;4.370;2023-05-23T05:32:40;12.32;;;3.83;;
45388;SDS011;31127;52.078;4.370;2023-05-23T05:37:36;7.50;;;3.80;;
45388;SDS011;31127;52.078;4.370;2023-05-23T05:42:32;13.55;;;3.05;;
45388;SDS011;31127;52.078;4.370;2023-05-23T05:47:27;10.07;;;2.70;;
45388;SDS011;31127;52.078;4.370;2023-05-23T05:52:43;9.27;;;2.88;;
45388;SDS011;31127;52.078;4.370;2023-05-23T05:57:39;6.25;;;2.58;;
45388;SDS011;31127;52.078;4.370;2023-05-23T06:02:35;18.67;;;2.47;;
45388;SDS011;31127;52.078;4.370;2023-05-23T06:07:31;9.60;;;2.03;;
45388;SDS011;31127;52.078;4.370;2023-05-23T06:12:26;7.38;;;1.45;;
45388;SDS011;31127;52.078;4.370;2023-05-23T06:17:21;7.68;;;1.95;;
45388;SDS011;31127;52.078;4.370;2023-05-23T06:22:17;8.55;;;2.40;;
45388;SDS011;31127;52.078;4.370;2023-05-23T06:27:13;8.65;;;1.60;;
45388;SDS011;31127;52.078;4.370;2023-05-23T06:32:09;12.18;;;3.28;;
45388;SDS011;31127;52.078;4.370;2023-05-23T06:37:05;9.30;;;1.92;;
45388;SDS011;31127;52.078;4.370;2023-05-23T06:42:00;10.27;;;1.90;;
45388;SDS011;31127;52.078;4.370;2023-05-23T06:47:07;15.88;;;3.60;;
45388;SDS011;31127;52.078;4.370;2023-05-23T06:52:03;13.40;;;2.40;;
45388;SDS011;31127;52.078;4.370;2023-05-23T06:56:59;18.70;;;2.92;;
45388;SDS011;31127;52.078;4.370;2023-05-23T07:01:54;10.90;;;2.50;;
45388;SDS011;31127;52.078;4.370;2023-05-23T07:06:52;10.73;;;2.08;;
45388;SDS011;31127;52.078;4.370;2023-05-23T07:11:48;9.13;;;2.15;;
45388;SDS011;31127;52.078;4.370;2023-05-23T07:17:07;18.90;;;2.53;;
45388;SDS011;31127;52.078;4.370;2023-05-23T07:22:03;14.43;;;2.22;;
45388;SDS011;31127;52.078;4.370;2023-05-23T07:27:00;8.38;;;2.20;;
45388;SDS011;31127;52.078;4.370;2023-05-23T07:31:57;11.45;;;2.42;;
45388;SDS011;31127;52.078;4.370;2023-05-23T07:36:53;13.10;;;2.78;;
45388;SDS011;31127;52.078;4.370;2023-05-23T07:42:15;9.63;;;2.85;;
45388;SDS011;31127;52.078;4.370;2023-05-23T07:47:10;13.93;;;1.95;;
45388;SDS011;31127;52.078;4.370;2023-05-23T07:52:06;18.15;;;2.42;;
45388;SDS011;31127;52.078;4.370;2023-05-23T07:57:03;15.13;;;2.75;;
45388;SDS011;31127;52.078;4.370;2023-05-23T08:01:59;12.13;;;2.45;;
45388;SDS011;31127;52.078;4.370;2023-05-23T08:06:55;12.10;;;2.75;;
45388;SDS011;31127;52.078;4.370;2023-05-23T08:11:54;16.42;;;2.58;;
45388;SDS011;31127;52.078;4.370;2023-05-23T08:16:51;13.23;;;2.75;;
45388;SDS011;31127;52.078;4.370;2023-05-23T08:21:52;15.23;;;3.95;;
45388;SDS011;31127;52.078;4.370;2023-05-23T08:26:48;12.43;;;2.80;;
45388;SDS011;31127;52.078;4.370;2023-05-23T08:31:44;12.85;;;3.55;;
45388;SDS011;31127;52.078;4.370;2023-05-23T08:36:40;17.40;;;2.88;;
45388;SDS011;31127;52.078;4.370;2023-05-23T08:41:39;12.85;;;3.15;;
45388;SDS011;31127;52.078;4.370;2023-05-23T08:46:43;13.70;;;4.22;;
45388;SDS011;31127;52.078;4.370;2023-05-23T08:51:41;13.75;;;2.65;;
45388;SDS011;31127;52.078;4.370;2023-05-23T08:56:43;12.03;;;3.00;;
45388;SDS011;31127;52.078;4.370;2023-05-23T09:07:23;12.77;;;2.67;;
45388;SDS011;31127;52.078;4.370;2023-05-23T09:12:20;12.55;;;1.77;;
45388;SDS011;31127;52.078;4.370;2023-05-23T09:17:19;10.57;;;2.67;;
45388;SDS011;31127;52.078;4.370;2023-05-23T09:22:15;15.35;;;2.65;;
45388;SDS011;31127;52.078;4.370;2023-05-23T09:27:25;8.00;;;1.85;;
45388;SDS011;31127;52.078;4.370;2023-05-23T09:32:21;12.50;;;2.72;;
45388;SDS011;31127;52.078;4.370;2023-05-23T09:37:16;8.85;;;2.60;;
45388;SDS011;31127;52.078;4.370;2023-05-23T09:42:20;20.98;;;3.75;;
45388;SDS011;31127;52.078;4.370;2023-05-23T09:47:16;13.05;;;4.10;;
45388;SDS011;31127;52.078;4.370;2023-05-23T09:52:12;10.20;;;2.15;;
45388;SDS011;31127;52.078;4.370;2023-05-23T09:57:09;16.02;;;3.00;;
45388;SDS011;31127;52.078;4.370;2023-05-23T10:02:06;9.82;;;2.78;;
45388;SDS011;31127;52.078;4.370;2023-05-23T10:07:20;8.68;;;2.38;;
45388;SDS011;31127;52.078;4.370;2023-05-23T10:22:28;12.02;;;2.30;;
45388;SDS011;31127;52.078;4.370;2023-05-23T10:27:23;7.72;;;2.10;;
45388;SDS011;31127;52.078;4.370;2023-05-23T10:32:19;14.48;;;2.17;;
45388;SDS011;31127;52.078;4.370;2023-05-23T10:37:26;9.32;;;1.83;;
45388;SDS011;31127;52.078;4.370;2023-05-23T10:47:25;8.10;;;2.20;;
45388;SDS011;31127;52.078;4.370;2023-05-23T10:52:23;13.60;;;3.10;;
45388;SDS011;31127;52.078;4.370;2023-05-23T10:57:21;9.23;;;2.22;;
45388;SDS011;31127;52.078;4.370;2023-05-23T11:02:18;10.35;;;2.50;;
45388;SDS011;31127;52.078;4.370;2023-05-23T11:07:30;10.98;;;3.13;;
45388;SDS011;31127;52.078;4.370;2023-05-23T11:17:54;13.10;;;2.90;;
45388;SDS011;31127;52.078;4.370;2023-05-23T11:22:54;12.90;;;3.65;;
45388;SDS011;31127;52.078;4.370;2023-05-23T11:27:55;12.18;;;3.95;;
45388;SDS011;31127;52.078;4.370;2023-05-23T11:32:52;13.07;;;2.75;;
45388;SDS011;31127;52.078;4.370;2023-05-23T11:37:48;11.30;;;2.60;;
45388;SDS011;31127;52.078;4.370;2023-05-23T11:42:43;13.27;;;2.80;;
45388;SDS011;31127;52.078;4.370;2023-05-23T11:47:39;6.00;;;2.50;;
45388;SDS011;31127;52.078;4.370;2023-05-23T11:52:35;11.63;;;2.83;;
45388;SDS011;31127;52.078;4.370;2023-05-23T11:57:30;12.07;;;3.57;;
45388;SDS011;31127;52.078;4.370;2023-05-23T12:02:26;12.70;;;3.40;;
45388;SDS011;31127;52.078;4.370;2023-05-23T12:07:22;12.57;;;2.45;;
45388;SDS011;31127;52.078;4.370;2023-05-23T12:12:18;9.88;;;3.00;;
45388;SDS011;31127;52.078;4.370;2023-05-23T12:17:14;12.73;;;2.63;;
45388;SDS011;31127;52.078;4.370;2023-05-23T12:22:10;8.57;;;2.55;;
45388;SDS011;31127;52.078;4.370;2023-05-23T12:27:05;7.30;;;2.30;;
45388;SDS011;31127;52.078;4.370;2023-05-23T12:32:23;7.07;;;2.13;;
45388;SDS011;31127;52.078;4.370;2023-05-23T12:37:19;6.20;;;2.70;;
45388;SDS011;31127;52.078;4.370;2023-05-23T12:42:16;8.38;;;2.25;;
45388;SDS011;31127;52.078;4.370;2023-05-23T12:47:11;7.72;;;2.05;;
45388;SDS011;31127;52.078;4.370;2023-05-23T12:52:07;11.52;;;2.85;;
45388;SDS011;31127;52.078;4.370;2023-05-23T12:57:04;11.15;;;2.58;;
45388;SDS011;31127;52.078;4.370;2023-05-23T13:01:59;9.60;;;2.35;;
45388;SDS011;31127;52.078;4.370;2023-05-23T13:07:15;7.03;;;2.60;;
45388;SDS011;31127;52.078;4.370;2023-05-23T13:12:11;7.75;;;2.45;;
45388;SDS011;31127;52.078;4.370;2023-05-23T13:17:06;10.50;;;2.63;;
45388;SDS011;31127;52.078;4.370;2023-05-23T13:22:02;9.60;;;2.95;;
45388;SDS011;31127;52.078;4.370;2023-05-23T13:26:59;8.20;;;2.33;;
45388;SDS011;31127;52.078;4.370;2023-05-23T13:31:55;7.07;;;2.72;;
45388;SDS011;31127;52.078;4.370;2023-05-23T13:36:51;8.20;;;2.45;;
45388;SDS011;31127;52.078;4.370;2023-05-23T13:41:47;8.13;;;2.65;;
45388;SDS011;31127;52.078;4.370;2023-05-23T13:46:42;10.40;;;2.53;;
45388;SDS011;31127;52.078;4.370;2023-05-23T13:51:38;6.85;;;1.70;;
45388;SDS011;31127;52.078;4.370;2023-05-23T13:56:54;9.32;;;2.53;;
45388;SDS011;31127;52.078;4.370;2023-05-23T14:01:49;10.18;;;2.72;;
45388;SDS011;31127;52.078;4.370;2023-05-23T14:06:44;8.45;;;2.35;;
45388;SDS011;31127;52.078;4.370;2023-05-23T14:11:40;8.57;;;2.93;;
45388;SDS011;31127;52.078;4.370;2023-05-23T14:16:35;9.05;;;2.67;;
45388;SDS011;31127;52.078;4.370;2023-05-23T14:21:32;9.35;;;2.38;;
45388;SDS011;31127;52.078;4.370;2023-05-23T14:26:27;11.45;;;2.20;;
45388;SDS011;31127;52.078;4.370;2023-05-23T14:31:23;7.30;;;2.10;;
45388;SDS011;31127;52.078;4.370;2023-05-23T14:36:18;7.30;;;2.25;;
45388;SDS011;31127;52.078;4.370;2023-05-23T14:41:19;11.60;;;3.50;;
45388;SDS011;31127;52.078;4.370;2023-05-23T14:46:16;5.72;;;2.35;;
45388;SDS011;31127;52.078;4.370;2023-05-23T14:51:11;10.15;;;2.65;;
45388;SDS011;31127;52.078;4.370;2023-05-23T14:56:07;9.27;;;2.15;;
45388;SDS011;31127;52.078;4.370;2023-05-23T15:01:23;8.05;;;2.40;;
45388;SDS011;31127;52.078;4.370;2023-05-23T15:06:18;7.03;;;2.22;;
45388;SDS011;31127;52.078;4.370;2023-05-23T15:11:14;9.00;;;4.18;;
45388;SDS011;31127;52.078;4.370;2023-05-23T15:16:09;6.72;;;2.50;;
45388;SDS011;31127;52.078;4.370;2023-05-23T15:21:05;7.43;;;2.67;;
45388;SDS011;31127;52.078;4.370;2023-05-23T15:26:01;7.93;;;1.90;;
45388;SDS011;31127;52.078;4.370;2023-05-23T15:30:57;11.25;;;2.33;;
45388;SDS011;31127;52.078;4.370;2023-05-23T15:35:53;10.27;;;2.60;;
45388;SDS011;31127;52.078;4.370;2023-05-23T15:40:49;12.15;;;2.40;;
45388;SDS011;31127;52.078;4.370;2023-05-23T15:45:48;11.63;;;2.42;;
45388;SDS011;31127;52.078;4.370;2023-05-23T15:50:45;8.77;;;2.65;;
45388;SDS011;31127;52.078;4.370;2023-05-23T15:55:41;8.93;;;2.13;;
45388;SDS011;31127;52.078;4.370;2023-05-23T16:00:38;6.55;;;2.25;;
45388;SDS011;31127;52.078;4.370;2023-05-23T16:05:33;10.23;;;2.42;;
45388;SDS011;31127;52.078;4.370;2023-05-23T16:10:29;12.05;;;2.60;;
45388;SDS011;31127;52.078;4.370;2023-05-23T16:15:25;8.82;;;2.55;;
45388;SDS011;31127;52.078;4.370;2023-05-23T16:20:20;10.93;;;3.38;;
45388;SDS011;31127;52.078;4.370;2023-05-23T16:25:16;8.68;;;2.47;;
45388;SDS011;31127;52.078;4.370;2023-05-23T16:30:12;10.23;;;2.65;;
45388;SDS011;31127;52.078;4.370;2023-05-23T16:35:28;9.65;;;2.55;;
45388;SDS011;31127;52.078;4.370;2023-05-23T16:40:23;10.48;;;2.17;;
45388;SDS011;31127;52.078;4.370;2023-05-23T16:45:19;10.57;;;2.17;;
45388;SDS011;31127;52.078;4.370;2023-05-23T16:50:18;10.20;;;2.28;;
45388;SDS011;31127;52.078;4.370;2023-05-23T16:55:13;5.38;;;2.08;;
45388;SDS011;31127;52.078;4.370;2023-05-23T17:00:09;6.35;;;1.85;;
45388;SDS011;31127;52.078;4.370;2023-05-23T17:05:05;6.20;;;2.17;;
45388;SDS011;31127;52.078;4.370;2023-05-23T17:10:02;10.10;;;2.38;;
45388;SDS011;31127;52.078;4.370;2023-05-23T17:14:58;5.72;;;2.03;;
45388;SDS011;31127;52.078;4.370;2023-05-23T17:19:54;6.70;;;2.30;;
45388;SDS011;31127;52.078;4.370;2023-05-23T17:24:49;5.30;;;1.95;;
45388;SDS011;31127;52.078;4.370;2023-05-23T17:29:46;10.48;;;2.28;;
45388;SDS011;31127;52.078;4.370;2023-05-23T17:34:42;8.88;;;2.00;;
45388;SDS011;31127;52.078;4.370;2023-05-23T17:39:38;15.00;;;2.30;;
45388;SDS011;31127;52.078;4.370;2023-05-23T17:44:35;9.75;;;1.90;;
45388;SDS011;31127;52.078;4.370;2023-05-23T17:49:31;6.28;;;1.92;;
45388;SDS011;31127;52.078;4.370;2023-05-23T17:54:29;11.98;;;1.95;;
45388;SDS011;31127;52.078;4.370;2023-05-23T17:59:25;8.00;;;2.00;;
45388;SDS011;31127;52.078;4.370;2023-05-23T18:04:22;10.63;;;2.67;;
45388;SDS011;31127;52.078;4.370;2023-05-23T18:09:38;10.15;;;2.05;;
45388;SDS011;31127;52.078;4.370;2023-05-23T18:14:38;9.32;;;1.83;;
45388;SDS011;31127;52.078;4.370;2023-05-23T18:19:34;9.32;;;1.90;;
45388;SDS011;31127;52.078;4.370;2023-05-23T18:24:30;8.68;;;2.55;;
45388;SDS011;31127;52.078;4.370;2023-05-23T18:29:26;5.55;;;1.55;;
45388;SDS011;31127;52.078;4.370;2023-05-23T18:34:22;15.75;;;1.95;;
45388;SDS011;31127;52.078;4.370;2023-05-23T18:39:18;7.45;;;1.60;;
45388;SDS011;31127;52.078;4.370;2023-05-23T18:44:34;11.98;;;1.98;;
45388;SDS011;31127;52.078;4.370;2023-05-23T18:49:30;10.13;;;1.55;;
45388;SDS011;31127;52.078;4.370;2023-05-23T18:54:30;13.35;;;2.10;;
45388;SDS011;31127;52.078;4.370;2023-05-23T18:59:27;10.73;;;2.05;;
45388;SDS011;31127;52.078;4.370;2023-05-23T19:04:22;12.93;;;2.42;;
45388;SDS011;31127;52.078;4.370;2023-05-23T19:09:21;13.50;;;2.00;;
45388;SDS011;31127;52.078;4.370;2023-05-23T19:14:18;11.68;;;2.05;;
45388;SDS011;31127;52.078;4.370;2023-05-23T19:19:14;11.98;;;2.28;;
45388;SDS011;31127;52.078;4.370;2023-05-23T19:24:10;9.27;;;2.10;;
45388;SDS011;31127;52.078;4.370;2023-05-23T19:29:13;10.23;;;3.33;;
45388;SDS011;31127;52.078;4.370;2023-05-23T19:34:09;7.95;;;1.95;;
45388;SDS011;31127;52.078;4.370;2023-05-23T19:39:24;7.20;;;1.88;;
45388;SDS011;31127;52.078;4.370;2023-05-23T19:44:21;11.15;;;2.30;;
45388;SDS011;31127;52.078;4.370;2023-05-23T19:49:17;7.43;;;2.30;;
45388;SDS011;31127;52.078;4.370;2023-05-23T19:54:14;21.33;;;2.67;;
45388;SDS011;31127;52.078;4.370;2023-05-23T19:59:10;16.00;;;4.90;;
45388;SDS011;31127;52.078;4.370;2023-05-23T20:04:06;11.20;;;2.38;;
45388;SDS011;31127;52.078;4.370;2023-05-23T20:09:04;11.93;;;2.58;;
45388;SDS011;31127;52.078;4.370;2023-05-23T20:13:59;9.30;;;2.65;;
45388;SDS011;31127;52.078;4.370;2023-05-23T20:18:57;11.27;;;2.10;;
45388;SDS011;31127;52.078;4.370;2023-05-23T20:23:52;11.77;;;2.35;;
45388;SDS011;31127;52.078;4.370;2023-05-23T20:28:49;12.98;;;2.58;;
45388;SDS011;31127;52.078;4.370;2023-05-23T20:33:46;11.50;;;2.10;;
45388;SDS011;31127;52.078;4.370;2023-05-23T20:38:42;12.63;;;2.15;;
45388;SDS011;31127;52.078;4.370;2023-05-23T20:43:38;15.68;;;3.03;;
45388;SDS011;31127;52.078;4.370;2023-05-23T20:48:33;10.70;;;2.47;;
45388;SDS011;31127;52.078;4.370;2023-05-23T20:53:31;13.60;;;2.13;;
45388;SDS011;31127;52.078;4.370;2023-05-23T20:58:27;14.98;;;2.28;;
45388;SDS011;31127;52.078;4.370;2023-05-23T21:03:25;10.27;;;2.42;;
45388;SDS011;31127;52.078;4.370;2023-05-23T21:08:21;10.45;;;2.00;;
45388;SDS011;31127;52.078;4.370;2023-05-23T21:13:16;19.17;;;3.70;;
45388;SDS011;31127;52.078;4.370;2023-05-23T21:18:12;9.50;;;2.05;;
45388;SDS011;31127;52.078;4.370;2023-05-23T21:23:08;8.50;;;1.90;;
45388;SDS011;31127;52.078;4.370;2023-05-23T21:28:03;13.07;;;2.58;;
45388;SDS011;31127;52.078;4.370;2023-05-23T21:33:00;7.32;;;2.22;;
45388;SDS011;31127;52.078;4.370;2023-05-23T21:37:56;14.93;;;2.80;;
45388;SDS011;31127;52.078;4.370;2023-05-23T21:42:52;14.27;;;2.55;;
45388;SDS011;31127;52.078;4.370;2023-05-23T21:48:07;12.52;;;3.00;;
45388;SDS011;31127;52.078;4.370;2023-05-23T21:53:23;8.68;;;2.20;;
45388;SDS011;31127;52.078;4.370;2023-05-23T21:58:19;8.25;;;2.30;;
45388;SDS011;31127;52.078;4.370;2023-05-23T22:03:15;19.40;;;3.45;;
45388;SDS011;31127;52.078;4.370;2023-05-23T22:08:33;8.45;;;2.08;;
45388;SDS011;31127;52.078;4.370;2023-05-23T22:13:28;16.08;;;2.58;;
45388;SDS011;31127;52.078;4.370;2023-05-23T22:18:24;12.25;;;2.33;;
45388;SDS011;31127;52.078;4.370;2023-05-23T22:23:20;13.65;;;2.40;;
45388;SDS011;31127;52.078;4.370;2023-05-23T22:28:16;14.05;;;2.53;;
45388;SDS011;31127;52.078;4.370;2023-05-23T22:33:11;12.18;;;2.30;;
45388;SDS011;31127;52.078;4.370;2023-05-23T22:38:07;11.93;;;2.10;;
45388;SDS011;31127;52.078;4.370;2023-05-23T22:43:04;19.05;;;3.05;;
45388;SDS011;31127;52.078;4.370;2023-05-23T22:48:00;9.25;;;3.90;;
45388;SDS011;31127;52.078;4.370;2023-05-23T22:52:56;12.63;;;3.65;;
45388;SDS011;31127;52.078;4.370;2023-05-23T22:58:11;8.95;;;2.55;;
45388;SDS011;31127;52.078;4.370;2023-05-23T23:03:08;10.55;;;2.10;;
45388;SDS011;31127;52.078;4.370;2023-05-23T23:08:03;11.95;;;2.78;;
45388;SDS011;31127;52.078;4.370;2023-05-23T23:13:19;13.48;;;2.55;;
45388;SDS011;31127;52.078;4.370;2023-05-23T23:18:14;12.20;;;2.13;;
45388;SDS011;31127;52.078;4.370;2023-05-23T23:23:29;12.30;;;2.40;;
45388;SDS011;31127;52.078;4.370;2023-05-23T23:28:25;17.70;;;2.57;;
45388;SDS011;31127;52.078;4.370;2023-05-23T23:33:20;11.85;;;2.33;;
45388;SDS011;31127;52.078;4.370;2023-05-23T23:38:15;11.25;;;4.35;;
45388;SDS011;31127;52.078;4.370;2023-05-23T23:43:11;16.92;;;3.00;;
45388;SDS011;31127;52.078;4.370;2023-05-23T23:48:07;7.75;;;2.75;;
45388;SDS011;31127;52.078;4.370;2023-05-23T23:53:02;14.02;;;3.15;;
45388;SDS011;31127;52.078;4.370;2023-05-23T23:57:58;11.68;;;2.05;;
